Aviation Digital Data Service (ADDS)

Output produced by METARs form (1142 UTC 20 April 2014)
found at http://aviationweather.gov/adds/metars/
 
KFNT 201120Z 2012/2112 15005KT P6SM BKN250 
     FM201500 20008KT P6SM BKN250 
     FM210000 17005KT P6SM BKN150